createdAt,value
2019-01-14T00:01:35.010Z,64.27
2019-01-14T00:04:04.614Z,68.07
2019-01-14T00:06:34.095Z,71.57
2019-01-14T00:09:05.833Z,67.03
2019-01-14T00:11:35.396Z,50.23
2019-01-14T00:14:05.013Z,39.47
2019-01-14T00:16:34.527Z,36.63
2019-01-14T00:19:04.021Z,37.03
2019-01-14T00:21:33.535Z,25.53
2019-01-14T00:24:03.092Z,24.23
2019-01-14T00:26:32.555Z,24.73
2019-01-14T00:29:02.066Z,24.43
2019-01-14T00:31:31.623Z,28.23
2019-01-14T00:34:01.188Z,24.43
2019-01-14T00:36:30.862Z,20.40
2019-01-14T00:39:00.317Z,29.27
2019-01-14T00:41:29.868Z,32.37
2019-01-14T00:43:59.415Z,29.57
2019-01-14T00:46:28.891Z,27.57
2019-01-14T00:48:58.391Z,27.07
2019-01-14T00:51:27.858Z,45.33
2019-01-14T00:53:57.366Z,29.17
2019-01-14T00:56:26.857Z,31.63
2019-01-14T00:58:56.311Z,35.20
2019-01-14T01:01:25.841Z,28.80
2019-01-14T01:03:55.355Z,28.30
2019-01-14T01:06:24.998Z,41.53
2019-01-14T01:08:54.487Z,45.03
2019-01-14T01:11:23.990Z,33.77
2019-01-14T01:13:53.473Z,24.50
2019-01-14T01:16:22.932Z,22.90
2019-01-14T01:18:52.557Z,38.50
2019-01-14T01:21:22.085Z,25.90
2019-01-14T01:23:51.564Z,24.10
2019-01-14T01:26:21.043Z,26.03
2019-01-14T01:28:50.509Z,29.03
2019-01-14T01:31:20.121Z,38.13
2019-01-14T01:33:49.623Z,37.73
2019-01-14T01:36:19.097Z,35.77
2019-01-14T01:38:48.570Z,38.13
2019-01-14T01:41:18.035Z,39.27
2019-01-14T01:43:47.545Z,36.87
2019-01-14T01:46:17.095Z,34.83
2019-01-14T01:48:46.582Z,37.03
2019-01-14T01:51:16.042Z,37.43
2019-01-14T01:53:45.596Z,33.87
2019-01-14T01:56:15.074Z,30.37
2019-01-14T01:58:44.583Z,35.50
2019-01-14T02:01:15.855Z,40.47
2019-01-14T02:03:45.327Z,39.87
2019-01-14T02:06:14.824Z,40.17
2019-01-14T02:08:44.325Z,40.87
2019-01-14T02:11:13.826Z,59.23
2019-01-14T02:13:43.331Z,40.47
2019-01-14T02:16:12.795Z,40.13
2019-01-14T02:18:42.251Z,39.40
2019-01-14T02:21:11.706Z,43.27
2019-01-14T02:23:41.198Z,40.47
2019-01-14T02:26:10.671Z,41.80
2019-01-14T02:28:40.120Z,43.53
2019-01-14T02:31:09.606Z,43.57
2019-01-14T02:33:39.080Z,43.03
2019-01-14T02:36:08.560Z,43.03
2019-01-14T02:38:38.038Z,49.23
2019-01-14T02:41:07.530Z,53.40
2019-01-14T02:43:37.032Z,55.73
2019-01-14T02:46:06.605Z,57.17
2019-01-14T02:48:36.071Z,55.57
2019-01-14T02:51:05.516Z,45.03
2019-01-14T02:53:35.009Z,42.97
2019-01-14T02:56:04.597Z,41.07
2019-01-14T02:58:34.101Z,39.53
2019-01-14T03:01:03.602Z,37.97
2019-01-14T03:03:33.077Z,38.90
2019-01-14T03:06:02.628Z,40.50
2019-01-14T03:08:32.156Z,38.43
2019-01-14T03:11:01.628Z,35.47
2019-01-14T03:13:31.141Z,38.23
2019-01-14T03:16:00.691Z,37.23
2019-01-14T03:18:30.201Z,44.70
2019-01-14T03:20:59.686Z,36.63
2019-01-14T03:23:29.230Z,37.80
2019-01-14T03:25:58.711Z,37.60
2019-01-14T03:28:28.213Z,40.93
2019-01-14T03:30:57.755Z,35.73
2019-01-14T03:33:27.219Z,41.07
2019-01-14T03:35:56.845Z,36.60
2019-01-14T03:38:26.332Z,40.77
2019-01-14T03:40:55.834Z,41.63
2019-01-14T03:43:25.355Z,38.97
2019-01-14T03:45:54.871Z,40.27
2019-01-14T03:48:24.347Z,39.40
2019-01-14T03:50:53.856Z,37.87
2019-01-14T03:53:23.353Z,40.70
2019-01-14T03:55:52.998Z,39.10
2019-01-14T03:58:22.475Z,41.77
2019-01-14T04:00:51.976Z,40.83
2019-01-14T04:03:21.467Z,43.10
2019-01-14T04:05:50.973Z,47.60
2019-01-14T04:08:20.453Z,41.67
2019-01-14T04:10:49.993Z,29.63
2019-01-14T04:13:19.473Z,25.53
2019-01-14T04:15:48.973Z,32.23
2019-01-14T04:18:18.512Z,35.93
2019-01-14T04:20:48.056Z,35.47
2019-01-14T04:23:17.567Z,35.77
2019-01-14T04:25:47.096Z,30.00
2019-01-14T04:28:16.621Z,30.57
2019-01-14T04:30:46.148Z,25.50
2019-01-14T04:33:15.682Z,24.70
2019-01-14T04:35:45.168Z,26.57
2019-01-14T04:38:14.697Z,27.03
2019-01-14T04:40:44.137Z,25.63
2019-01-14T04:43:13.693Z,29.90
2019-01-14T04:45:43.163Z,26.67
2019-01-14T04:48:12.676Z,25.43
2019-01-14T04:50:42.204Z,25.77
2019-01-14T04:53:11.728Z,23.93
2019-01-14T04:55:41.279Z,30.17
2019-01-14T04:58:10.772Z,31.70
2019-01-14T05:00:40.255Z,27.13
2019-01-14T05:03:09.710Z,30.87
2019-01-14T05:05:39.530Z,26.50
2019-01-14T05:08:09.318Z,29.97
2019-01-14T05:10:38.822Z,26.77
2019-01-14T05:13:08.309Z,30.20
2019-01-14T05:15:37.799Z,31.67
2019-01-14T05:18:07.289Z,27.43
2019-01-14T05:20:36.885Z,36.80
2019-01-14T05:23:06.747Z,29.43
2019-01-14T05:25:36.181Z,26.90
2019-01-14T05:28:05.643Z,26.50
2019-01-14T05:30:35.134Z,24.93
2019-01-14T05:33:04.641Z,22.30
2019-01-14T05:35:34.138Z,27.97
2019-01-14T05:38:03.639Z,31.87
2019-01-14T05:40:33.146Z,23.00
2019-01-14T05:43:02.738Z,21.77
2019-01-14T05:45:32.355Z,27.43
2019-01-14T05:48:01.963Z,29.00
2019-01-14T05:50:31.601Z,22.13
2019-01-14T05:53:01.095Z,22.70
2019-01-14T05:55:30.610Z,21.80
2019-01-14T05:58:00.250Z,19.33
2019-01-14T06:00:43.274Z,25.00
2019-01-14T06:03:12.806Z,21.77
2019-01-14T06:05:42.326Z,20.43
2019-01-14T06:08:11.811Z,21.67
2019-01-14T06:10:41.300Z,23.83
2019-01-14T06:13:10.829Z,25.67
2019-01-14T06:15:40.348Z,23.53
2019-01-14T06:18:09.950Z,24.10
2019-01-14T06:20:39.542Z,20.13
2019-01-14T06:23:09.077Z,25.17
2019-01-14T06:25:39.285Z,25.73
2019-01-14T06:28:08.808Z,21.70
2019-01-14T06:30:38.648Z,24.60
2019-01-14T06:33:08.174Z,23.40
2019-01-14T06:35:37.684Z,24.30
2019-01-14T06:38:07.132Z,20.00
2019-01-14T06:40:36.671Z,22.93
2019-01-14T06:43:06.196Z,25.27
2019-01-14T06:45:35.735Z,38.87
2019-01-14T06:48:05.584Z,37.97
2019-01-14T06:50:35.063Z,27.07
2019-01-14T06:53:04.671Z,24.13
2019-01-14T06:55:34.146Z,28.60
2019-01-14T06:58:04.165Z,24.87
2019-01-14T07:00:33.657Z,25.87
2019-01-14T07:03:03.092Z,27.60
2019-01-14T07:05:32.635Z,26.57
2019-01-14T07:08:02.559Z,26.63
2019-01-14T07:10:32.451Z,23.80
2019-01-14T07:13:01.915Z,25.10
2019-01-14T07:15:31.492Z,31.87
2019-01-14T07:18:01.061Z,28.67
2019-01-14T07:20:30.606Z,29.40
2019-01-14T07:23:00.075Z,29.77
2019-01-14T07:25:29.560Z,25.33
2019-01-14T07:27:59.101Z,24.73
2019-01-14T07:30:28.657Z,25.80
2019-01-14T07:32:58.152Z,25.30
2019-01-14T07:35:27.614Z,28.33
2019-01-14T07:37:57.148Z,25.20
2019-01-14T07:40:29.809Z,26.37
2019-01-14T07:42:59.324Z,22.83
2019-01-14T07:45:28.764Z,26.73
2019-01-14T07:47:58.235Z,24.13
2019-01-14T07:50:27.819Z,22.23
2019-01-14T07:52:57.333Z,26.43
2019-01-14T07:55:26.829Z,25.83
2019-01-14T07:57:56.355Z,26.77
2019-01-14T08:00:27.121Z,30.90
2019-01-14T08:02:56.716Z,27.13
2019-01-14T08:05:26.189Z,27.70
2019-01-14T08:07:55.774Z,29.30
2019-01-14T08:10:25.221Z,25.67
2019-01-14T08:12:54.733Z,24.23
2019-01-14T08:15:24.322Z,27.27
2019-01-14T08:17:53.842Z,25.37
2019-01-14T08:20:23.403Z,25.53
2019-01-14T08:22:52.888Z,24.67
2019-01-14T08:25:22.541Z,22.77
2019-01-14T08:27:52.178Z,23.57
2019-01-14T08:30:23.722Z,25.93
2019-01-14T08:32:53.225Z,29.97
2019-01-14T08:35:22.875Z,26.73
2019-01-14T08:37:52.460Z,26.83
2019-01-14T08:40:21.937Z,24.77
2019-01-14T08:42:51.415Z,23.97
2019-01-14T08:45:21.009Z,26.10
2019-01-14T08:47:50.525Z,23.87
2019-01-14T08:50:21.818Z,25.90
2019-01-14T08:52:52.106Z,27.20
2019-01-14T08:55:21.628Z,29.03
2019-01-14T08:57:54.761Z,34.10
2019-01-14T09:00:23.424Z,34.83
2019-01-14T09:02:52.934Z,33.03
2019-01-14T09:05:22.609Z,37.23
2019-01-14T09:07:52.200Z,36.10
2019-01-14T09:10:26.142Z,36.73
2019-01-14T09:12:55.696Z,44.63
2019-01-14T09:15:25.200Z,46.90
2019-01-14T09:18:02.418Z,49.70
2019-01-14T09:20:26.126Z,48.67
2019-01-14T09:22:55.651Z,43.00
2019-01-14T09:25:25.130Z,46.30
2019-01-14T09:27:54.756Z,45.53
2019-01-14T09:30:26.004Z,41.03
2019-01-14T09:32:55.543Z,43.90
2019-01-14T09:35:25.045Z,37.40
2019-01-14T09:37:54.618Z,46.83
2019-01-14T09:40:25.295Z,45.00
2019-01-14T09:42:54.886Z,45.60
2019-01-14T09:45:24.317Z,49.33
2019-01-14T09:47:53.886Z,55.47
2019-01-14T09:50:23.366Z,53.20
2019-01-14T09:52:52.933Z,51.10
2019-01-14T09:55:22.580Z,54.00
2019-01-14T09:57:52.086Z,55.57
2019-01-14T10:00:21.710Z,52.47
2019-01-14T10:02:55.392Z,50.13
2019-01-14T10:05:22.457Z,50.63
2019-01-14T10:07:52.176Z,52.27
2019-01-14T10:10:21.956Z,54.87
2019-01-14T10:12:51.449Z,57.40
2019-01-14T10:15:25.303Z,49.83
2019-01-14T10:17:58.713Z,57.10
2019-01-14T10:20:28.229Z,58.43
2019-01-14T10:22:57.745Z,53.63
2019-01-14T10:25:27.284Z,52.77
2019-01-14T10:27:56.781Z,55.10
2019-01-14T10:30:26.362Z,56.10
2019-01-14T10:32:55.873Z,57.23
2019-01-14T10:35:25.400Z,57.17
2019-01-14T10:37:54.920Z,53.67
2019-01-14T10:40:24.399Z,51.53
2019-01-14T10:42:54.004Z,53.83
2019-01-14T10:45:24.385Z,58.27
2019-01-14T10:47:53.879Z,69.13
2019-01-14T10:50:23.443Z,65.07
2019-01-14T10:52:52.951Z,67.57
2019-01-14T10:55:22.453Z,71.53
2019-01-14T10:57:52.114Z,68.47
2019-01-14T11:00:23.897Z,75.23
2019-01-14T11:02:53.787Z,66.03
2019-01-14T11:05:25.917Z,65.17
2019-01-14T11:07:55.574Z,66.40
2019-01-14T11:10:25.045Z,66.70
2019-01-14T11:12:54.558Z,72.10
2019-01-14T11:15:24.049Z,61.20
2019-01-14T11:17:53.523Z,67.90
2019-01-14T11:20:30.983Z,65.30
2019-01-14T11:23:01.328Z,65.30
2019-01-14T11:25:30.824Z,67.30
2019-01-14T11:28:00.419Z,62.60
2019-01-14T11:30:31.782Z,63.27
2019-01-14T11:33:01.288Z,58.97
2019-01-14T11:35:30.776Z,60.13
2019-01-14T11:38:00.386Z,61.37
2019-01-14T11:40:33.179Z,52.60
2019-01-14T11:43:02.757Z,60.20
2019-01-14T11:45:32.208Z,57.77
2019-01-14T11:48:01.724Z,55.23
2019-01-14T11:50:31.220Z,55.43
2019-01-14T11:53:00.688Z,55.03
2019-01-14T11:55:30.188Z,59.40
2019-01-14T11:57:59.681Z,50.77
2019-01-14T12:00:36.278Z,66.67
2019-01-14T12:03:01.840Z,51.53
2019-01-14T12:05:31.457Z,50.60
2019-01-14T12:08:00.934Z,52.33
2019-01-14T12:10:30.422Z,52.53
2019-01-14T12:12:59.934Z,50.67
2019-01-14T12:15:30.165Z,49.70
2019-01-14T12:17:59.625Z,51.30
2019-01-14T12:20:29.105Z,56.10
2019-01-14T12:22:58.584Z,60.37
2019-01-14T12:25:28.055Z,54.47
2019-01-14T12:27:57.543Z,54.10
2019-01-14T12:30:32.891Z,55.77
2019-01-14T12:33:02.407Z,48.63
2019-01-14T12:35:31.940Z,47.17
2019-01-14T12:38:01.415Z,52.97
2019-01-14T12:40:30.853Z,46.87
2019-01-14T12:43:00.330Z,51.07
2019-01-14T12:45:29.907Z,45.50
2019-01-14T12:47:59.852Z,47.47
2019-01-14T12:50:29.568Z,47.73
2019-01-14T12:52:59.172Z,39.37
2019-01-14T12:55:28.712Z,45.17
2019-01-14T12:57:58.187Z,41.17
2019-01-14T13:00:29.245Z,47.27
2019-01-14T13:02:59.093Z,39.47
2019-01-14T13:05:29.896Z,42.33
2019-01-14T13:07:59.369Z,43.70
2019-01-14T13:10:29.627Z,43.30
2019-01-14T13:12:59.335Z,39.53
2019-01-14T13:15:30.258Z,39.73
2019-01-14T13:18:05.483Z,42.93
2019-01-14T13:20:37.328Z,37.57
2019-01-14T13:23:07.214Z,41.07
2019-01-14T13:25:37.787Z,42.70
2019-01-14T13:28:07.943Z,41.23
2019-01-14T13:30:38.848Z,41.10
2019-01-14T13:33:08.642Z,41.87
2019-01-14T13:35:40.232Z,40.20
2019-01-14T13:38:10.112Z,42.60
2019-01-14T13:40:42.064Z,42.50
2019-01-14T13:43:12.978Z,43.67
2019-01-14T13:45:47.486Z,42.80
2019-01-14T13:48:18.177Z,46.47
2019-01-14T13:50:48.592Z,43.57
2019-01-14T13:53:23.564Z,43.13
2019-01-14T13:55:59.398Z,43.30
2019-01-14T13:58:29.865Z,39.77
2019-01-14T14:01:02.679Z,38.90
2019-01-14T14:03:36.680Z,41.70
2019-01-14T14:06:08.410Z,39.97
2019-01-14T14:08:37.979Z,40.23
2019-01-14T14:11:07.472Z,26.97
2019-01-14T14:13:36.960Z,23.87
2019-01-14T14:16:06.461Z,22.40
2019-01-14T14:18:35.952Z,22.20
2019-01-14T14:21:05.457Z,21.97
2019-01-14T14:23:34.995Z,25.23
2019-01-14T14:26:04.507Z,23.87
2019-01-14T14:28:34.029Z,23.97
2019-01-14T14:31:03.551Z,21.13
2019-01-14T14:33:33.104Z,20.63
2019-01-14T14:36:02.581Z,19.93
2019-01-14T14:38:32.094Z,18.33
2019-01-14T14:41:01.614Z,20.70
2019-01-14T14:43:31.094Z,17.70
2019-01-14T14:46:00.561Z,16.70
2019-01-14T14:48:30.047Z,15.30
2019-01-14T14:50:59.738Z,17.83
2019-01-14T14:53:32.372Z,14.23
2019-01-14T14:56:02.873Z,13.77
2019-01-14T14:58:32.363Z,14.43
2019-01-14T15:01:02.867Z,14.77
2019-01-14T15:03:32.960Z,15.33
2019-01-14T15:06:02.710Z,15.13
2019-01-14T15:08:32.299Z,13.40
2019-01-14T15:11:02.858Z,15.67
2019-01-14T15:13:35.197Z,15.33
2019-01-14T15:16:04.613Z,15.87
2019-01-14T15:18:34.087Z,16.87
2019-01-14T15:21:03.546Z,19.47
2019-01-14T15:23:33.151Z,18.30
2019-01-14T15:26:02.740Z,20.00
2019-01-14T15:28:32.347Z,16.57
2019-01-14T15:31:01.994Z,15.50
2019-01-14T15:33:31.534Z,19.20
2019-01-14T15:36:01.217Z,17.77
2019-01-14T15:38:30.698Z,20.77
2019-01-14T15:41:00.162Z,24.73
2019-01-14T15:43:29.699Z,28.70
2019-01-14T15:45:59.360Z,27.57
2019-01-14T15:48:28.861Z,29.57
2019-01-14T15:50:58.330Z,29.30
2019-01-14T15:53:28.183Z,30.03
2019-01-14T15:56:00.827Z,30.33
2019-01-14T15:58:30.389Z,30.13
2019-01-14T16:00:59.912Z,29.67
2019-01-14T16:03:31.489Z,28.63
2019-01-14T16:06:01.028Z,29.83
2019-01-14T16:08:30.578Z,30.13
2019-01-14T16:11:00.211Z,28.97
2019-01-14T16:13:29.727Z,28.70
2019-01-14T16:15:59.175Z,29.53
2019-01-14T16:18:28.837Z,29.73
2019-01-14T16:20:58.351Z,32.97
2019-01-14T16:23:27.842Z,40.13
2019-01-14T16:25:57.863Z,31.23
2019-01-14T16:28:27.439Z,30.83
2019-01-14T16:30:57.009Z,34.70
2019-01-14T16:33:26.742Z,39.03
2019-01-14T16:35:56.487Z,32.70
2019-01-14T16:38:26.073Z,38.73
2019-01-14T16:40:55.964Z,36.20
2019-01-14T16:43:25.508Z,31.27
2019-01-14T16:45:55.071Z,33.90
2019-01-14T16:48:24.599Z,27.70
2019-01-14T16:50:54.081Z,28.40
2019-01-14T16:53:23.591Z,24.80
2019-01-14T16:55:57.152Z,24.47
2019-01-14T16:58:27.711Z,25.50
2019-01-14T17:00:57.307Z,22.57
2019-01-14T17:03:27.317Z,24.80
2019-01-14T17:05:56.924Z,23.10
2019-01-14T17:08:26.464Z,27.10
2019-01-14T17:10:57.103Z,22.50
2019-01-14T17:13:28.202Z,21.37
2019-01-14T17:15:57.755Z,24.47
2019-01-14T17:18:27.844Z,25.40
2019-01-14T17:20:57.796Z,22.83
2019-01-14T17:23:27.302Z,26.43
2019-01-14T17:25:56.824Z,24.87
2019-01-14T17:28:26.382Z,26.87
2019-01-14T17:30:56.172Z,29.20
2019-01-14T17:33:28.811Z,31.50
2019-01-14T17:35:58.658Z,29.53
2019-01-14T17:38:28.147Z,28.10
2019-01-14T17:40:57.638Z,32.33
2019-01-14T17:43:27.255Z,31.60
2019-01-14T17:45:56.915Z,32.47
2019-01-14T17:48:26.436Z,32.53
2019-01-14T17:50:56.021Z,32.90
2019-01-14T17:53:25.576Z,33.47
2019-01-14T17:55:55.169Z,38.60
2019-01-14T17:58:24.731Z,34.77
2019-01-14T18:00:54.258Z,38.67
2019-01-14T18:03:23.789Z,39.90
2019-01-14T18:05:53.343Z,38.27
2019-01-14T18:08:22.831Z,38.33
2019-01-14T18:10:52.331Z,40.10
2019-01-14T18:13:21.845Z,40.03
2019-01-14T18:15:51.332Z,40.30
2019-01-14T18:18:20.801Z,41.53
2019-01-14T18:20:50.299Z,39.93
2019-01-14T18:23:19.826Z,40.97
2019-01-14T18:25:49.340Z,38.30
2019-01-14T18:28:18.866Z,42.57
2019-01-14T18:30:48.359Z,42.53
2019-01-14T18:33:17.853Z,39.97
2019-01-14T18:35:47.386Z,45.23
2019-01-14T18:38:16.940Z,40.93
2019-01-14T18:40:47.198Z,39.80
2019-01-14T18:43:16.892Z,44.43
2019-01-14T18:45:48.546Z,44.43
2019-01-14T18:48:17.699Z,40.20
2019-01-14T18:50:47.282Z,42.73
2019-01-14T18:53:16.858Z,41.03
2019-01-14T18:55:47.608Z,40.53
2019-01-14T18:58:17.639Z,45.07
2019-01-14T19:00:49.894Z,41.87
2019-01-14T19:03:20.612Z,39.03
2019-01-14T19:05:50.425Z,41.63
2019-01-14T19:08:20.411Z,38.43
2019-01-14T19:10:54.371Z,28.23
2019-01-14T19:13:21.708Z,24.53
2019-01-14T19:15:51.253Z,23.67
2019-01-14T19:18:21.012Z,21.53
2019-01-14T19:20:50.689Z,12.20
2019-01-14T19:23:20.297Z,14.50
2019-01-14T19:25:50.161Z,13.10
2019-01-14T19:28:19.981Z,11.73
2019-01-14T19:30:49.580Z,10.53
2019-01-14T19:33:19.439Z,9.47
2019-01-14T19:35:49.082Z,8.93
2019-01-14T19:38:18.999Z,9.10
2019-01-14T19:40:48.621Z,9.53
2019-01-14T19:43:18.539Z,10.23
2019-01-14T19:45:49.934Z,10.43
2019-01-14T19:48:19.656Z,9.40
2019-01-14T19:50:49.310Z,8.43
2019-01-14T19:53:18.883Z,6.97
2019-01-14T19:55:48.523Z,8.77
2019-01-14T19:58:18.349Z,7.63
2019-01-14T20:00:48.047Z,9.17
2019-01-14T20:03:17.667Z,7.30
2019-01-14T20:05:48.423Z,6.40
2019-01-14T20:08:21.445Z,8.80
2019-01-14T20:10:51.200Z,6.83
2019-01-14T20:13:20.658Z,7.93
2019-01-14T20:15:50.145Z,7.03
2019-01-14T20:18:19.631Z,7.37
2019-01-14T20:20:49.166Z,7.40
2019-01-14T20:23:18.747Z,8.27
2019-01-14T20:25:48.995Z,7.60
2019-01-14T20:28:18.583Z,6.00
2019-01-14T20:30:48.249Z,7.23
2019-01-14T20:33:19.624Z,8.20
2019-01-14T20:35:49.287Z,7.53
2019-01-14T20:38:18.845Z,7.60
2019-01-14T20:40:48.305Z,9.03
2019-01-14T20:43:17.915Z,7.47
2019-01-14T20:45:47.344Z,6.67
2019-01-14T20:48:16.858Z,9.00
2019-01-14T20:50:46.466Z,6.60
2019-01-14T20:53:16.033Z,7.53
2019-01-14T20:55:45.579Z,7.17
2019-01-14T20:58:15.217Z,6.17
2019-01-14T21:00:44.814Z,7.03
2019-01-14T21:03:14.288Z,8.60
2019-01-14T21:05:46.255Z,7.83
2019-01-14T21:08:15.966Z,10.83
2019-01-14T21:10:45.632Z,11.97
2019-01-14T21:13:15.259Z,11.87
2019-01-14T21:15:45.134Z,13.27
2019-01-14T21:18:14.807Z,14.03
2019-01-14T21:20:44.417Z,15.20
2019-01-14T21:23:14.025Z,13.50
2019-01-14T21:25:43.701Z,13.63
2019-01-14T21:28:13.272Z,14.57
2019-01-14T21:30:44.266Z,12.77
2019-01-14T21:33:13.925Z,13.83
2019-01-14T21:35:43.709Z,10.43
2019-01-14T21:38:13.326Z,12.60
2019-01-14T21:40:43.014Z,14.93
2019-01-14T21:43:12.616Z,11.73
2019-01-14T21:45:42.306Z,9.30
2019-01-14T21:48:17.056Z,9.00
2019-01-14T21:50:43.274Z,7.10
2019-01-14T21:53:12.954Z,8.33
2019-01-14T21:55:42.572Z,6.07
2019-01-14T21:58:12.241Z,8.47
2019-01-14T22:00:41.888Z,4.87
2019-01-14T22:03:11.437Z,5.23
2019-01-14T22:05:41.062Z,5.93
2019-01-14T22:08:10.677Z,6.07
2019-01-14T22:10:40.306Z,7.30
2019-01-14T22:13:09.932Z,5.47
2019-01-14T22:15:39.627Z,6.53
2019-01-14T22:18:09.228Z,5.93
2019-01-14T22:20:38.802Z,10.10
2019-01-14T22:23:08.397Z,6.63
2019-01-14T22:25:38.000Z,5.57
2019-01-14T22:28:07.516Z,9.07
2019-01-14T22:30:37.212Z,6.97
2019-01-14T22:33:06.817Z,7.50
2019-01-14T22:35:36.410Z,6.53
2019-01-14T22:38:06.034Z,6.17
2019-01-14T22:40:35.615Z,4.97
2019-01-14T22:43:05.173Z,6.03
2019-01-14T22:45:34.713Z,5.33
2019-01-14T22:48:04.405Z,7.40
2019-01-14T22:50:34.005Z,4.83
2019-01-14T22:53:03.685Z,4.83
2019-01-14T22:55:33.259Z,5.23
2019-01-14T22:58:02.767Z,6.10
2019-01-14T23:01:16.897Z,5.90
2019-01-14T23:03:53.266Z,7.97
2019-01-14T23:06:22.735Z,5.50
2019-01-14T23:08:52.304Z,4.57
2019-01-14T23:11:21.781Z,6.93
2019-01-14T23:13:51.237Z,4.87
2019-01-14T23:16:20.688Z,6.20
2019-01-14T23:18:50.166Z,4.90
2019-01-14T23:21:19.599Z,4.63
2019-01-14T23:23:49.036Z,4.47
2019-01-14T23:26:18.490Z,5.37
2019-01-14T23:28:47.998Z,6.03
2019-01-14T23:31:17.492Z,3.37
2019-01-14T23:33:46.946Z,3.20
2019-01-14T23:36:16.380Z,6.20
2019-01-14T23:38:45.863Z,3.23
2019-01-14T23:41:15.368Z,6.97
2019-01-14T23:43:44.867Z,6.80
2019-01-14T23:46:14.397Z,7.83
2019-01-14T23:48:43.890Z,5.13
2019-01-14T23:51:13.427Z,4.50
2019-01-14T23:53:42.913Z,4.07
2019-01-14T23:56:12.375Z,4.87
2019-01-14T23:58:41.853Z,2.77
